createdAt,value
2022-08-29T00:01:59.062Z,101318.66
2022-08-29T00:04:25.608Z,101311.59
2022-08-29T00:06:52.362Z,101319.41
2022-08-29T00:09:18.793Z,101322.75
2022-08-29T00:11:46.649Z,101319.22
2022-08-29T00:14:21.080Z,101326.16
2022-08-29T00:16:50.223Z,101321.72
2022-08-29T00:19:16.733Z,101325.09
2022-08-29T00:21:43.226Z,101319.81
2022-08-29T00:24:09.698Z,101328.50
2022-08-29T00:26:36.152Z,101327.59
2022-08-29T00:29:02.701Z,101331.06
2022-08-29T00:31:29.204Z,101317.06
2022-08-29T00:33:57.582Z,101324.00
2022-08-29T00:36:25.257Z,101323.94
2022-08-29T00:38:52.964Z,101329.16
2022-08-29T00:41:19.721Z,101332.63
2022-08-29T00:43:46.372Z,101329.13
2022-08-29T00:46:41.452Z,101322.03
2022-08-29T00:49:13.451Z,101328.03
2022-08-29T00:51:41.046Z,101332.38
2022-08-29T00:54:10.084Z,101333.13
2022-08-29T00:56:37.981Z,101328.56
2022-08-29T00:59:09.381Z,101333.69
2022-08-29T01:01:36.049Z,101330.03
2022-08-29T01:04:02.647Z,101335.19
2022-08-29T01:06:32.066Z,101335.91
2022-08-29T01:08:58.917Z,101338.41
2022-08-29T01:11:44.599Z,101342.69
2022-08-29T01:14:11.150Z,101335.66
2022-08-29T01:16:37.699Z,101334.72
2022-08-29T01:19:16.131Z,101346.88
2022-08-29T01:21:52.470Z,101338.91
2022-08-29T01:24:38.881Z,101340.53
2022-08-29T01:27:05.685Z,101343.00
2022-08-29T01:29:32.232Z,101340.28
2022-08-29T01:31:58.698Z,101343.69
2022-08-29T01:34:27.163Z,101337.44
2022-08-29T01:36:56.469Z,101334.78
2022-08-29T01:39:26.556Z,101338.22
2022-08-29T01:41:53.483Z,101339.00
2022-08-29T01:44:21.796Z,101348.59
2022-08-29T01:46:51.059Z,101339.00
2022-08-29T01:49:18.812Z,101345.03
2022-08-29T01:51:45.762Z,101344.09
2022-08-29T01:54:13.025Z,101341.41
2022-08-29T01:56:43.130Z,101343.06
2022-08-29T01:59:14.619Z,101348.22
2022-08-29T02:01:46.595Z,101349.06
2022-08-29T02:04:13.102Z,101348.06
2022-08-29T02:06:40.219Z,101350.66
2022-08-29T02:09:07.070Z,101355.00
2022-08-29T02:11:38.745Z,101349.69
2022-08-29T02:14:06.435Z,101352.28
2022-08-29T02:16:33.010Z,101355.78
2022-08-29T02:19:00.032Z,101355.75
2022-08-29T02:21:29.105Z,101353.13
2022-08-29T02:23:57.980Z,101352.19
2022-08-29T02:26:24.441Z,101349.56
2022-08-29T02:28:51.762Z,101345.97
2022-08-29T02:31:19.794Z,101343.31
2022-08-29T02:33:46.693Z,101344.13
2022-08-29T02:36:13.746Z,101346.75
2022-08-29T02:38:40.598Z,101348.41
2022-08-29T02:41:09.370Z,101350.09
2022-08-29T02:43:38.932Z,101338.69
2022-08-29T02:46:05.394Z,101343.91
2022-08-29T02:48:31.998Z,101346.41
2022-08-29T02:51:01.255Z,101345.47
2022-08-29T02:53:30.998Z,101350.69
2022-08-29T02:55:58.250Z,101351.53
2022-08-29T02:58:25.558Z,101346.31
2022-08-29T03:00:53.982Z,101347.06
2022-08-29T03:03:21.090Z,101351.38
2022-08-29T03:05:47.967Z,101351.25
2022-08-29T03:08:14.976Z,101350.34
2022-08-29T03:10:42.673Z,101349.50
2022-08-29T03:13:09.990Z,101349.50
2022-08-29T03:15:36.439Z,101353.03
2022-08-29T03:18:03.261Z,101346.16
2022-08-29T03:20:29.851Z,101342.69
2022-08-29T03:22:56.436Z,101349.69
2022-08-29T03:25:23.534Z,101341.00
2022-08-29T03:27:50.220Z,101341.03
2022-08-29T03:30:17.358Z,101340.19
2022-08-29T03:32:44.938Z,101344.56
2022-08-29T03:35:12.058Z,101342.91
2022-08-29T03:37:38.588Z,101339.41
2022-08-29T03:40:06.359Z,101342.06
2022-08-29T03:42:32.889Z,101340.34
2022-08-29T03:44:59.321Z,101342.19
2022-08-29T03:47:25.893Z,101340.50
2022-08-29T03:49:52.326Z,101339.66
2022-08-29T03:52:18.767Z,101334.41
2022-08-29T03:54:45.238Z,101337.06
2022-08-29T03:57:11.905Z,101337.06
2022-08-29T03:59:38.401Z,101344.91
2022-08-29T04:02:04.967Z,101345.78
2022-08-29T04:04:50.128Z,101346.69
2022-08-29T04:07:17.662Z,101348.47
2022-08-29T04:09:44.325Z,101356.38
2022-08-29T04:12:12.090Z,101352.94
2022-08-29T04:14:39.239Z,101344.28
2022-08-29T04:17:05.985Z,101339.97
2022-08-29T04:19:33.253Z,101341.78
2022-08-29T04:22:00.127Z,101336.59
2022-08-29T04:24:26.776Z,101342.69
2022-08-29T04:26:53.290Z,101342.75
2022-08-29T04:29:19.726Z,101349.72
2022-08-29T04:31:46.185Z,101346.25
2022-08-29T04:34:13.279Z,101345.34
2022-08-29T04:36:42.840Z,101344.53
2022-08-29T04:39:09.820Z,101349.81
2022-08-29T04:41:36.895Z,101348.97
2022-08-29T04:44:04.652Z,101343.84
2022-08-29T04:46:31.548Z,101343.03
2022-08-29T04:49:01.910Z,101347.44
2022-08-29T04:51:31.075Z,101343.97
2022-08-29T04:53:57.558Z,101337.94
2022-08-29T04:56:24.073Z,101348.50
2022-08-29T04:58:51.921Z,101345.94
2022-08-29T05:01:22.220Z,101360.88
2022-08-29T05:03:49.333Z,101355.69
2022-08-29T05:06:17.875Z,101363.69
2022-08-29T05:08:46.191Z,101358.53
2022-08-29T05:11:22.528Z,101360.41
2022-08-29T05:13:50.009Z,101370.94
2022-08-29T05:16:17.696Z,101377.13
2022-08-29T05:18:46.171Z,101374.56
2022-08-29T05:21:14.004Z,101371.09
2022-08-29T05:23:40.582Z,101379.94
2022-08-29T05:26:07.071Z,101373.81
2022-08-29T05:28:34.998Z,101369.47
2022-08-29T05:31:02.053Z,101373.00
2022-08-29T05:33:28.659Z,101374.84
2022-08-29T05:35:55.128Z,101380.00
2022-08-29T05:38:21.607Z,101374.94
2022-08-29T05:40:48.138Z,101381.13
2022-08-29T05:43:14.687Z,101387.28
2022-08-29T05:45:41.771Z,101380.31
2022-08-29T05:48:09.416Z,101383.94
2022-08-29T05:50:43.579Z,101377.94
2022-08-29T05:53:11.942Z,101393.69
2022-08-29T05:55:44.379Z,101378.91
2022-08-29T05:58:12.014Z,101386.91
2022-08-29T06:00:42.692Z,101382.66
2022-08-29T06:03:10.874Z,101387.16
2022-08-29T06:05:38.125Z,101378.53
2022-08-29T06:08:05.303Z,101391.72
2022-08-29T06:10:32.020Z,101379.47
2022-08-29T06:12:58.491Z,101384.03
2022-08-29T06:15:28.409Z,101385.84
2022-08-29T06:17:56.077Z,101391.28
2022-08-29T06:20:23.713Z,101393.09
2022-08-29T06:22:50.172Z,101385.34
2022-08-29T06:25:37.993Z,101399.50
2022-08-29T06:28:03.519Z,101396.03
2022-08-29T06:30:31.884Z,101395.16
2022-08-29T06:32:58.573Z,101399.66
2022-08-29T06:35:25.019Z,101401.53
2022-08-29T06:37:51.783Z,101398.09
2022-08-29T06:40:18.373Z,101399.00
2022-08-29T06:42:44.890Z,101403.47
2022-08-29T06:45:11.386Z,101394.81
2022-08-29T06:47:37.857Z,101398.41
2022-08-29T06:50:04.626Z,101405.44
2022-08-29T06:52:31.080Z,101407.38
2022-08-29T06:54:57.550Z,101417.03
2022-08-29T06:57:24.040Z,101410.25
2022-08-29T06:59:50.480Z,101413.81
2022-08-29T07:02:17.019Z,101409.59
2022-08-29T07:04:43.722Z,101407.09
2022-08-29T07:07:10.158Z,101415.09
2022-08-29T07:09:36.655Z,101413.38
2022-08-29T07:12:03.478Z,101411.75
2022-08-29T07:14:29.959Z,101418.00
2022-08-29T07:16:56.665Z,101418.09
2022-08-29T07:19:23.113Z,101422.56
2022-08-29T07:21:49.604Z,101424.44
2022-08-29T07:24:16.069Z,101424.53
2022-08-29T07:26:43.770Z,101424.56
2022-08-29T07:29:14.408Z,101424.72
2022-08-29T07:31:41.228Z,101425.69
2022-08-29T07:34:07.968Z,101417.00
2022-08-29T07:36:35.002Z,101420.63
2022-08-29T07:39:03.656Z,101421.53
2022-08-29T07:41:30.169Z,101408.50
2022-08-29T07:43:57.397Z,101420.78
2022-08-29T07:46:25.558Z,101414.84
2022-08-29T07:48:52.787Z,101423.75
2022-08-29T07:51:22.893Z,101423.94
2022-08-29T07:53:49.557Z,101425.75
2022-08-29T07:56:20.354Z,101417.09
2022-08-29T07:58:46.880Z,101425.06
2022-08-29T08:01:20.924Z,101423.38
2022-08-29T08:03:49.966Z,101415.53
2022-08-29T08:06:17.446Z,101424.34
2022-08-29T08:08:43.978Z,101422.59
2022-08-29T08:11:10.479Z,101420.84
2022-08-29T08:13:37.299Z,101415.56
2022-08-29T08:16:09.181Z,101424.44
2022-08-29T08:18:36.606Z,101427.84
2022-08-29T08:21:03.295Z,101423.50
2022-08-29T08:23:29.817Z,101428.88
2022-08-29T08:25:56.322Z,101433.22
2022-08-29T08:28:22.928Z,101430.66
2022-08-29T08:30:49.444Z,101433.38
2022-08-29T08:33:16.176Z,101443.97
2022-08-29T08:35:46.736Z,101437.94
2022-08-29T08:38:13.857Z,101436.22
2022-08-29T08:40:46.494Z,101447.78
2022-08-29T08:43:26.214Z,101439.00
2022-08-29T08:45:55.244Z,101434.72
2022-08-29T08:48:24.428Z,101436.53
2022-08-29T08:51:03.800Z,101434.84
2022-08-29T08:53:36.384Z,101439.28
2022-08-29T08:56:16.789Z,101432.31
2022-08-29T08:58:53.450Z,101434.97
2022-08-29T09:01:27.838Z,101438.47
2022-08-29T09:04:21.755Z,101439.41
2022-08-29T09:07:22.345Z,101438.63
2022-08-29T09:10:10.474Z,101448.38
2022-08-29T09:13:00.964Z,101444.97
2022-08-29T09:15:44.683Z,101440.50
2022-08-29T09:18:44.447Z,101442.38
2022-08-29T09:21:40.023Z,101443.28
2022-08-29T09:24:12.823Z,101438.94
2022-08-29T09:26:39.276Z,101435.50
2022-08-29T09:29:09.127Z,101431.13
2022-08-29T09:31:36.012Z,101434.63
2022-08-29T09:34:11.669Z,101432.88
2022-08-29T09:36:45.897Z,101437.28
2022-08-29T09:39:30.347Z,101434.69
2022-08-29T09:42:00.033Z,101426.84
2022-08-29T09:44:34.670Z,101419.00
2022-08-29T09:47:07.287Z,101426.09
2022-08-29T09:49:34.422Z,101433.06
2022-08-29T09:52:24.662Z,101421.72
2022-08-29T09:54:51.253Z,101422.56
2022-08-29T09:57:29.204Z,101422.59
2022-08-29T10:00:18.253Z,101429.63
2022-08-29T10:02:53.972Z,101432.31
2022-08-29T10:05:36.915Z,101429.69
2022-08-29T10:08:07.526Z,101430.63
2022-08-29T10:10:36.189Z,101420.06
2022-08-29T10:13:20.542Z,101426.22
2022-08-29T10:16:08.995Z,101425.31
2022-08-29T10:18:51.496Z,101420.94
2022-08-29T10:21:33.391Z,101431.53
2022-08-29T10:24:20.434Z,101420.97
2022-08-29T10:26:50.129Z,101421.84
2022-08-29T10:29:41.343Z,101426.25
2022-08-29T10:32:13.720Z,101420.97
2022-08-29T10:35:01.677Z,101428.03
2022-08-29T10:38:05.686Z,101423.63
2022-08-29T10:40:50.090Z,101424.50
2022-08-29T10:43:27.025Z,101422.75
2022-08-29T10:46:05.762Z,101426.28
2022-08-29T10:48:47.507Z,101420.09
2022-08-29T10:51:20.302Z,101419.16
2022-08-29T10:53:58.584Z,101413.88
2022-08-29T10:56:31.195Z,101416.50
2022-08-29T10:59:09.109Z,101414.72
2022-08-29T11:01:48.590Z,101409.44
2022-08-29T11:04:27.139Z,101411.19
2022-08-29T11:07:23.167Z,101403.22
2022-08-29T11:09:52.624Z,101411.19
2022-08-29T11:12:46.061Z,101405.00
2022-08-29T11:15:18.293Z,101406.75
2022-08-29T11:17:48.620Z,101406.72
2022-08-29T11:20:22.331Z,101412.00
2022-08-29T11:22:56.385Z,101412.00
2022-08-29T11:25:22.840Z,101408.47
2022-08-29T11:28:01.210Z,101415.53
2022-08-29T11:30:30.809Z,101414.66
2022-08-29T11:33:04.024Z,101401.41
2022-08-29T11:35:33.341Z,101404.06
2022-08-29T11:38:24.777Z,101408.47
2022-08-29T11:41:27.604Z,101402.28
2022-08-29T11:43:59.647Z,101409.31
2022-08-29T11:46:40.075Z,101409.28
2022-08-29T11:49:24.678Z,101403.03
2022-08-29T11:51:54.975Z,101406.53
2022-08-29T11:54:25.009Z,101412.69
2022-08-29T11:57:11.567Z,101405.59
2022-08-29T11:59:44.279Z,101404.72
2022-08-29T12:02:31.414Z,101412.66
2022-08-29T12:05:20.677Z,101414.44
2022-08-29T12:07:54.864Z,101411.78
2022-08-29T12:10:24.146Z,101408.28
2022-08-29T12:13:05.237Z,101410.03
2022-08-29T12:15:38.075Z,101411.88
2022-08-29T12:18:07.291Z,101405.69
2022-08-29T12:20:56.947Z,101407.41
2022-08-29T12:23:31.620Z,101402.94
2022-08-29T12:28:59.318Z,101406.50
2022-08-29T12:31:38.277Z,101399.44
2022-08-29T12:34:18.901Z,101396.78
2022-08-29T12:37:19.560Z,101387.00
2022-08-29T12:39:59.305Z,101380.75
2022-08-29T12:42:39.997Z,101383.38
2022-08-29T12:45:13.162Z,101376.25
2022-08-29T12:47:49.249Z,101385.00
2022-08-29T12:50:29.168Z,101383.31
2022-08-29T12:53:23.412Z,101385.91
2022-08-29T12:55:58.510Z,101378.75
2022-08-29T12:58:46.874Z,101379.63
2022-08-29T13:01:25.524Z,101379.59
2022-08-29T13:04:01.765Z,101377.03
2022-08-29T13:06:28.309Z,101376.16
2022-08-29T13:08:54.837Z,101376.22
2022-08-29T13:11:24.585Z,101376.28
2022-08-29T13:13:51.203Z,101378.88
2022-08-29T13:16:30.208Z,101377.03
2022-08-29T13:19:12.063Z,101375.22
2022-08-29T13:21:38.926Z,101369.00
2022-08-29T13:24:21.130Z,101368.13
2022-08-29T13:27:05.575Z,101366.34
2022-08-29T13:29:39.971Z,101372.56
2022-08-29T13:32:23.546Z,101369.09
2022-08-29T13:35:18.288Z,101364.75
2022-08-29T13:37:46.775Z,101359.44
2022-08-29T13:40:31.602Z,101356.81
2022-08-29T13:42:59.058Z,101358.63
2022-08-29T13:45:26.141Z,101349.81
2022-08-29T13:48:03.585Z,101351.50
2022-08-29T13:50:31.185Z,101350.66
2022-08-29T13:52:58.223Z,101349.72
2022-08-29T13:55:24.967Z,101350.53
2022-08-29T13:57:53.392Z,101350.50
2022-08-29T14:00:27.224Z,101345.19
2022-08-29T14:03:02.128Z,101335.44
2022-08-29T14:05:28.697Z,101338.03
2022-08-29T14:07:55.207Z,101334.44
2022-08-29T14:10:21.809Z,101337.13
2022-08-29T14:12:48.268Z,101336.25
2022-08-29T14:15:17.935Z,101333.53
2022-08-29T14:17:46.111Z,101336.16
2022-08-29T14:20:13.442Z,101324.59
2022-08-29T14:22:40.543Z,101334.34
2022-08-29T14:25:08.567Z,101329.03
2022-08-29T14:27:35.024Z,101324.47
2022-08-29T14:30:01.520Z,101331.63
2022-08-29T14:32:27.967Z,101322.72
2022-08-29T14:34:54.428Z,101327.19
2022-08-29T14:37:21.346Z,101320.91
2022-08-29T14:39:49.856Z,101320.84
2022-08-29T14:42:16.688Z,101314.66
2022-08-29T14:44:43.122Z,101312.91
2022-08-29T14:47:09.566Z,101319.97
2022-08-29T14:49:36.337Z,101311.97
2022-08-29T14:52:03.265Z,101309.31
2022-08-29T14:54:29.857Z,101318.13
2022-08-29T14:56:56.315Z,101317.19
2022-08-29T14:59:25.439Z,101316.28
2022-08-29T15:01:54.835Z,101313.69
2022-08-29T15:04:36.336Z,101318.13
2022-08-29T15:07:05.701Z,101308.31
2022-08-29T15:09:32.278Z,101308.34
2022-08-29T15:11:58.719Z,101303.06
2022-08-29T15:14:25.271Z,101303.03
2022-08-29T15:16:51.713Z,101299.47
2022-08-29T15:19:53.667Z,101291.50
2022-08-29T15:22:05.320Z,101294.09
2022-08-29T15:24:31.874Z,101296.75
2022-08-29T15:26:58.667Z,101296.66
2022-08-29T15:29:25.411Z,101289.56
2022-08-29T15:31:51.889Z,101291.31
2022-08-29T15:34:18.782Z,101284.28
2022-08-29T15:36:45.252Z,101284.31
2022-08-29T15:39:13.133Z,101285.28
2022-08-29T15:41:39.580Z,101280.00
2022-08-29T15:44:06.039Z,101280.00
2022-08-29T15:46:33.925Z,101289.63
2022-08-29T15:49:06.517Z,101287.84
2022-08-29T15:51:33.779Z,101292.19
2022-08-29T15:54:00.502Z,101292.19
2022-08-29T15:56:27.079Z,101290.31
2022-08-29T15:58:53.529Z,101277.91
2022-08-29T16:01:20.048Z,101282.34
2022-08-29T16:03:46.493Z,101284.06
2022-08-29T16:06:12.936Z,101279.66
2022-08-29T16:08:39.394Z,101277.78
2022-08-29T16:11:12.517Z,101277.81
2022-08-29T16:13:38.970Z,101272.34
2022-08-29T16:16:05.497Z,101277.56
2022-08-29T16:18:32.025Z,101274.13
2022-08-29T16:20:58.496Z,101273.19
2022-08-29T16:23:24.946Z,101270.66
2022-08-29T16:25:51.378Z,101279.59
2022-08-29T16:28:18.690Z,101275.19
2022-08-29T16:30:46.277Z,101269.94
2022-08-29T16:33:13.481Z,101273.50
2022-08-29T16:35:39.914Z,101269.97
2022-08-29T16:38:06.352Z,101277.13
2022-08-29T16:40:32.862Z,101270.88
2022-08-29T16:43:00.575Z,101269.56
2022-08-29T16:45:27.029Z,101268.72
2022-08-29T16:47:57.393Z,101264.31
2022-08-29T16:50:24.254Z,101272.72
2022-08-29T16:52:50.726Z,101261.34
2022-08-29T16:55:17.186Z,101260.75
2022-08-29T16:58:03.555Z,101262.59
2022-08-29T17:00:30.287Z,101259.19
2022-08-29T17:02:56.933Z,101262.66
2022-08-29T17:05:24.372Z,101269.31
2022-08-29T17:07:50.931Z,101262.88
2022-08-29T17:10:17.354Z,101261.13
2022-08-29T17:12:43.748Z,101258.00
2022-08-29T17:15:10.168Z,101259.53
2022-08-29T17:17:36.612Z,101260.47
2022-08-29T17:20:03.629Z,101263.38
2022-08-29T17:22:30.075Z,101268.78
2022-08-29T17:24:56.539Z,101271.59
2022-08-29T17:27:26.791Z,101278.53
2022-08-29T17:29:55.888Z,101279.59
2022-08-29T17:32:22.935Z,101278.75
2022-08-29T17:34:50.281Z,101276.78
2022-08-29T17:37:16.732Z,101279.13
2022-08-29T17:39:43.232Z,101277.91
2022-08-29T17:42:10.085Z,101288.94
2022-08-29T17:44:36.526Z,101280.41
2022-08-29T17:47:02.990Z,101283.25
2022-08-29T17:49:29.737Z,101282.59
2022-08-29T17:51:56.197Z,101276.69
2022-08-29T17:54:23.922Z,101282.19
2022-08-29T17:56:56.291Z,101275.25
2022-08-29T17:59:27.198Z,101273.63
2022-08-29T18:01:54.518Z,101284.34
2022-08-29T18:04:22.094Z,101283.63
2022-08-29T18:06:48.761Z,101285.50
2022-08-29T18:09:15.429Z,101286.50
2022-08-29T18:11:44.594Z,101292.78
2022-08-29T18:14:11.681Z,101295.53
2022-08-29T18:16:38.529Z,101299.13
2022-08-29T18:19:05.490Z,101296.59
2022-08-29T18:21:32.884Z,101296.66
2022-08-29T18:23:59.959Z,101297.63
2022-08-29T18:26:27.017Z,101294.19
2022-08-29T18:28:54.249Z,101307.47
2022-08-29T18:31:21.305Z,101304.91
2022-08-29T18:34:03.373Z,101308.50
2022-08-29T18:36:32.022Z,101312.03
2022-08-29T18:38:58.706Z,101316.50
2022-08-29T18:41:25.223Z,101312.13
2022-08-29T18:43:51.827Z,101305.97
2022-08-29T18:46:18.772Z,101308.66
2022-08-29T18:48:45.564Z,101315.75
2022-08-29T18:51:12.641Z,101325.47
2022-08-29T18:53:39.774Z,101338.72
2022-08-29T18:56:06.766Z,101344.06
2022-08-29T18:58:34.271Z,101337.09
2022-08-29T19:01:27.490Z,101340.63
2022-08-29T19:03:56.216Z,101337.13
2022-08-29T19:06:26.044Z,101342.44
2022-08-29T19:08:53.830Z,101350.34
2022-08-29T19:11:20.488Z,101352.13
2022-08-29T19:13:49.207Z,101352.13
2022-08-29T19:16:20.367Z,101360.97
2022-08-29T19:18:47.166Z,101368.03
2022-08-29T19:21:14.200Z,101365.41
2022-08-29T19:23:46.135Z,101361.88
2022-08-29T19:26:17.343Z,101368.06
2022-08-29T19:28:44.780Z,101368.97
2022-08-29T19:31:12.498Z,101380.44
2022-08-29T19:33:42.058Z,101373.41
2022-08-29T19:36:09.678Z,101370.75
2022-08-29T19:38:36.822Z,101369.88
2022-08-29T19:41:05.140Z,101383.97
2022-08-29T19:43:33.236Z,101389.28
2022-08-29T19:46:01.493Z,101385.75
2022-08-29T19:48:28.550Z,101384.84
2022-08-29T19:50:55.836Z,101391.00
2022-08-29T19:53:26.517Z,101396.28
2022-08-29T19:55:55.277Z,101393.66
2022-08-29T19:58:32.020Z,101400.66
2022-08-29T20:01:03.764Z,101401.56
2022-08-29T20:03:31.292Z,101399.78
2022-08-29T20:05:59.855Z,101408.56
2022-08-29T20:08:27.413Z,101423.53
2022-08-29T20:10:56.020Z,101425.31
2022-08-29T20:13:22.799Z,101420.91
2022-08-29T20:15:50.095Z,101416.50
2022-08-29T20:18:18.775Z,101420.03
2022-08-29T20:20:46.073Z,101416.50
2022-08-29T20:23:14.815Z,101422.66
2022-08-29T20:25:41.586Z,101427.91
2022-08-29T20:28:08.199Z,101431.44
2022-08-29T20:30:43.093Z,101433.19
2022-08-29T20:33:11.870Z,101424.41
2022-08-29T20:35:58.397Z,101433.19
2022-08-29T20:38:25.035Z,101431.41
2022-08-29T20:40:54.620Z,101427.88
2022-08-29T20:43:21.690Z,101428.75
2022-08-29T20:45:48.373Z,101436.63
2022-08-29T20:48:15.257Z,101438.34
2022-08-29T20:50:42.117Z,101436.59
2022-08-29T20:53:14.480Z,101440.97
2022-08-29T20:55:43.515Z,101451.53
2022-08-29T20:58:10.097Z,101447.97
2022-08-29T21:00:36.878Z,101446.22
2022-08-29T21:03:22.204Z,101448.84
2022-08-29T21:05:48.793Z,101449.66
2022-08-29T21:08:21.201Z,101449.63
2022-08-29T21:10:49.320Z,101453.09
2022-08-29T21:13:17.282Z,101452.22
2022-08-29T21:15:44.367Z,101469.78
2022-08-29T21:18:12.888Z,101458.28
2022-08-29T21:20:53.967Z,101463.56
2022-08-29T21:23:23.245Z,101461.78
2022-08-29T21:25:59.144Z,101467.88
2022-08-29T21:28:27.091Z,101465.22
2022-08-29T21:30:54.519Z,101470.50
2022-08-29T21:33:21.411Z,101473.13
2022-08-29T21:35:50.000Z,101472.22
2022-08-29T21:38:17.336Z,101476.63
2022-08-29T21:40:50.522Z,101474.78
2022-08-29T21:43:17.599Z,101475.66
2022-08-29T21:45:44.624Z,101467.72
2022-08-29T21:48:11.268Z,101479.13
2022-08-29T21:50:38.585Z,101472.97
2022-08-29T21:53:05.811Z,101469.44
2022-08-29T21:55:33.121Z,101467.63
2022-08-29T21:58:00.766Z,101473.78
2022-08-29T22:00:35.420Z,101467.63
2022-08-29T22:03:05.504Z,101467.59
2022-08-29T22:05:33.109Z,101468.44
2022-08-29T22:08:01.189Z,101463.97
2022-08-29T22:10:31.198Z,101469.22
2022-08-29T22:12:58.922Z,101461.31
2022-08-29T22:15:44.996Z,101466.50
2022-08-29T22:18:14.595Z,101469.09
2022-08-29T22:20:42.739Z,101475.22
2022-08-29T22:23:10.025Z,101469.00
2022-08-29T22:25:36.992Z,101473.38
2022-08-29T22:28:04.232Z,101466.34
2022-08-29T22:30:32.568Z,101464.56
2022-08-29T22:33:00.468Z,101472.44
2022-08-29T22:35:27.950Z,101469.75
2022-08-29T22:37:54.697Z,101463.59
2022-08-29T22:40:21.520Z,101460.94
2022-08-29T22:42:48.352Z,101466.19
2022-08-29T22:45:16.425Z,101465.22
2022-08-29T22:47:44.690Z,101466.94
2022-08-29T22:50:15.863Z,101461.63
2022-08-29T22:52:42.515Z,101458.09
2022-08-29T22:55:12.718Z,101463.28
2022-08-29T22:57:40.755Z,101464.09
2022-08-29T23:00:09.219Z,101459.69
2022-08-29T23:02:35.935Z,101456.97
2022-08-29T23:05:06.378Z,101460.44
2022-08-29T23:07:35.653Z,101465.69
2022-08-29T23:10:03.478Z,101468.31
2022-08-29T23:12:30.280Z,101467.38
2022-08-29T23:14:57.033Z,101468.19
2022-08-29T23:17:23.622Z,101466.41
2022-08-29T23:19:50.302Z,101469.88
2022-08-29T23:22:16.989Z,101468.97
2022-08-29T23:24:58.833Z,101475.03
2022-08-29T23:27:27.558Z,101472.38
2022-08-29T23:29:54.246Z,101478.47
2022-08-29T23:32:20.974Z,101468.81
2022-08-29T23:34:47.756Z,101471.34
2022-08-29T23:37:14.342Z,101462.56
2022-08-29T23:39:40.992Z,101464.25
2022-08-29T23:42:07.776Z,101474.75
2022-08-29T23:44:35.922Z,101465.97
2022-08-29T23:47:02.862Z,101470.34
2022-08-29T23:49:29.816Z,101471.13
2022-08-29T23:51:56.681Z,101469.28
2022-08-29T23:54:25.858Z,101471.78
2022-08-29T23:56:53.506Z,101473.47
2022-08-29T23:59:38.888Z,101469.09
